• Join FlightAware (Why Join?)
  • Login
  • US Flag 
06:31PM EDT


 

Airport Tracker/Info


-or-


 

Live Flight TrackerFlight Track Log ✈ SWA875 ✈ 07-Dec-2013 ✈ KSLC - KOAK

Flight Track Log - Related Links

Times and Time Zones

All times are in EST time to prevent confusion due to time zone crossing. See the SWA875 flight status page for this flight to view local times or setup timezone preferences in your user account.

Time Position Orientation Groundspeed Altitude Reporting Facility
EST Latitude Longitude Course Direction KTS MPH feet Rate Location/Type
01:43PM 40.7636 -112.0219 233° Southwest 179 206 6,500  Level Salt Lake Center
01:44PM 40.7631 -112.1022 270° West 235 270 9,400 2,580 Climbing Salt Lake Center
01:45PM 40.7936 -112.1950 294° West 273 314 11,800 2,400 Climbing Salt Lake Center
01:46PM 40.8319 -112.3053 295° West 329 379 14,400 2,400 Climbing Salt Lake Center
01:47PM 40.8672 -112.4231 292° West 343 395 16,800 2,580 Climbing Salt Lake Center
01:48PM 40.8647 -112.5519 269° West 348 400 19,700 2,760 Climbing Salt Lake Center
01:49PM 40.8525 -112.7092 264° West 359 413 22,500 2,340 Climbing Salt Lake Center
01:50PM 40.8414 -112.8428 264° West 367 422 24,600 1,920 Climbing Salt Lake Center
01:51PM 40.8433 -112.9817 271° West 376 433 26,500 1,500 Climbing Salt Lake Center
01:52PM 40.8381 -113.1228 267° West 387 445 27,700 1,500 Climbing Salt Lake Center
01:53PM 40.7817 -113.2464 239° Southwest 391 450 29,600 1,860 Climbing Salt Lake Center
01:54PM 40.7317 -113.3672 241° Southwest 380 437 31,600 1,440 Climbing Salt Lake Center
01:55PM 40.6775 -113.4881 239° Southwest 381 438 32,600 1,260 Climbing Salt Lake Center
01:56PM 40.6244 -113.6117 241° Southwest 388 447 34,300 1,260 Climbing Salt Lake Center
01:57PM 40.5708 -113.7319 240° Southwest 384 442 35,300 780 Climbing Salt Lake Center
01:58PM 40.5086 -113.8781 241° Southwest 384 442 36,000 300 Climbing Salt Lake Center
01:59PM 40.4550 -114.0019 240° Southwest 388 447 36,000  Level Salt Lake Center
02:00PM 40.3997 -114.1244 239° Southwest 391 450 36,000  Level Salt Lake Center
02:01PM 40.3469 -114.2475 241° Southwest 388 447 36,000  Level Salt Lake Center
02:02PM 40.2931 -114.3675 240° Southwest 383 441 36,000  Level Salt Lake Center
02:03PM 40.2383 -114.4883 239° Southwest 386 444 36,000  Level Salt Lake Center
02:04PM 40.1850 -114.6072 240° Southwest 382 440 36,000  Level Salt Lake Center
02:05PM 40.1333 -114.7261 240° Southwest 378 435 36,000  Level Salt Lake Center
02:06PM 40.0731 -114.8608 240° Southwest 388 447 36,000 -60 Level Salt Lake Center
02:07PM 40.0131 -114.9958 240° Southwest 386 444 35,900  Descending Salt Lake Center
02:08PM 39.9594 -115.1119 239° Southwest 388 447 36,000  Climbing Salt Lake Center
02:09PM 39.9061 -115.2283 239° Southwest 389 448 36,000  Level Salt Lake Center
02:10PM 39.8439 -115.3636 239° Southwest 389 448 36,000 -60 Level Salt Lake Center
02:11PM 39.7878 -115.4828 239° Southwest 399 459 35,900  Descending Salt Lake Center
02:12PM 39.7250 -115.6178 239° Southwest 391 450 36,000  Climbing Salt Lake Center
02:13PM 39.6719 -115.7325 239° Southwest 386 444 36,000  Level Salt Lake Center
02:15PM 39.6197 -115.8447 239° Southwest 380 437 36,000  Level Salt Lake Center
02:16PM 39.5589 -115.9758 239° Southwest 380 437 36,000 -60 Level Salt Lake Center
02:17PM 39.5053 -116.0892 239° Southwest 383 441 35,900  Descending Salt Lake Center
02:18PM 39.4431 -116.2208 239° Southwest 383 441 36,000  Climbing Salt Lake Center
02:19PM 39.3911 -116.3339 239° Southwest 381 438 36,000 -60 Level Salt Lake Center
02:20PM 39.3378 -116.4442 238° Southwest 377 434 35,900  Descending Salt Lake Center
02:21PM 39.2761 -116.5728 238° Southwest 376 433 36,000  Climbing Salt Lake Center
02:22PM 39.2239 -116.6828 239° Southwest 374 430 36,000  Level Salt Lake Center
02:23PM 39.1622 -116.8133 239° Southwest 380 437 36,000 -60 Level Salt Lake Center
02:24PM 39.1086 -116.9244 238° Southwest 379 436 35,900  Descending Salt Lake Center
02:25PM 39.0511 -117.0414 238° Southwest 372 428 36,000  Climbing Salt Lake Center
02:26PM 39.0064 -117.1361 239° Southwest 369 425 36,000  Level Oakland Center
02:27PM 38.9408 -117.2711 238° Southwest 371 427 36,000  Level Oakland Center
02:28PM 38.8872 -117.3800 238° Southwest 378 435 36,000  Level Oakland Center
02:29PM 38.8322 -117.4919 238° Southwest 374 430 36,000 -60 Level Oakland Center
02:30PM 38.7781 -117.6025 238° Southwest 368 423 35,900  Descending Oakland Center
02:31PM 38.7236 -117.7119 238° Southwest 367 422 36,000  Climbing Oakland Center
02:32PM 38.6667 -117.8289 238° Southwest 361 415 36,000  Level Oakland Center
02:33PM 38.6150 -117.9339 238° Southwest 375 432 36,000  Level Oakland Center
02:34PM 38.5497 -118.0667 238° Southwest 371 427 36,000  Level Oakland Center
02:35PM 38.5083 -118.1692 243° Southwest 365 420 36,000  Level Oakland Center
02:36PM 38.4600 -118.2819 241° Southwest 362 417 36,000  Level Oakland Center
02:37PM 38.4114 -118.3967 242° Southwest 365 420 36,000  Level Oakland Center
02:38PM 38.3636 -118.5094 242° Southwest 363 418 36,000  Level Oakland Center
02:39PM 38.3158 -118.6225 242° Southwest 362 417 36,000 -420 Level Oakland Center
02:40PM 38.2561 -118.7603 241° Southwest 367 422 35,200 -900 Descending Oakland Center
02:41PM 38.2083 -118.8700 241° Southwest 358 412 34,200 -600 Descending Oakland Center
02:42PM 38.1619 -118.9806 242° Southwest 355 409 34,000 -120 Descending Oakland Center
02:43PM 38.1200 -119.0775 241° Southwest 355 409 34,000  Level Oakland Center
02:44PM 38.0950 -119.1939 255° West 350 403 34,000  Level Oakland Center
02:45PM 38.0794 -119.3056 260° West 329 379 34,000  Level Oakland Center
02:46PM 38.0594 -119.4383 259° West 320 368 34,000  Level Oakland Center
02:47PM 38.0414 -119.5467 258° West 316 364 34,000  Level Oakland Center
02:48PM 38.0247 -119.6558 259° West 316 364 34,000  Level Oakland Center
02:49PM 38.0075 -119.7650 259° West 316 364 34,000  Level Oakland Center
02:50PM 37.9908 -119.8758 259° West 319 367 34,000  Level Oakland Center
02:51PM 37.9731 -119.9844 258° West 316 364 34,000  Level Oakland Center
02:52PM 37.9575 -120.0925 260° West 312 359 34,000 -60 Level Oakland Center
02:53PM 37.9383 -120.1997 257° West 312 359 33,900 -1,200 Descending Oakland Center
02:54PM 37.9225 -120.3081 260° West 313 360 31,600 -2,100 Descending Oakland Center
02:55PM 37.9056 -120.4117 258° West 303 349 29,600 -1,980 Descending Oakland Center
02:56PM 37.8903 -120.5111 259° West 291 335 27,600 -1,440 Descending Oakland Center
02:57PM 37.8753 -120.6072 259° West 282 325 26,700 -1,080 Descending Oakland Center
02:58PM 37.8611 -120.7317 262° West 297 342 25,500 -1,200 Descending Oakland Center
02:59PM 37.8414 -120.8339 256° West 300 345 24,300 -1,620 Descending Oakland Center
03:00PM 37.8206 -120.9325 255° West 292 336 22,300 -2,040 Descending Oakland Center
03:01PM 37.7981 -121.0317 254° West 293 337 20,200 -2,100 Descending Oakland Center
03:02PM 37.7747 -121.1331 254° West 297 342 18,100 -1,980 Descending Oakland Center
03:03PM 37.7528 -121.2328 254° West 295 339 16,200 -1,860 Descending Oakland Center
03:05PM 37.7319 -121.3244 254° West 277 319 14,300 -1,860 Descending Oakland Center
03:06PM 37.7128 -121.4136 255° West 268 308 12,500 -1,920 Descending Oakland Center
03:07PM 37.6914 -121.5053 254° West 257 296 10,400 -2,040 Descending Oakland Center
03:08PM 37.6717 -121.5928 254° West 257 296 8,400 -1,680 Descending Oakland Center
03:09PM 37.6522 -121.6797 254° West 258 297 7,000 -840 Descending Oakland Center
03:10PM 37.6458 -121.7661 265° West 251 289 6,700 -720 Descending Oakland Center
03:11PM 37.6400 -121.8469 265° West 238 274 5,600 -1,080 Descending Oakland Center
03:12PM 37.6333 -121.9225 264° West 224 258 4,600 -1,020 Descending Oakland Center
03:13PM 37.6278 -121.9956 265° West 214 246 3,600 -840 Descending Oakland Center
03:14PM 37.6225 -122.0658 265° West 207 238 3,000 -900 Descending Oakland Center
03:15PM 37.6500 -122.1333 297° West 166 191 1,900 -960 Descending Northern Cal TRACON
03:16PM 37.6667 -122.1667 302° West 126 145 1,200 -720 Descending Northern Cal TRACON
03:17PM 37.6833 -122.2000 302° West 117 135 500 -720 Descending Northern Cal TRACON
03:20PM 37.7167 -122.2167 270° West  Level FlightAware Approximate